Time;durP1;ratioP1;P1;durP2;ratioP2;P2;SDS_P1;SDS_P2;PMS_P1;PMS_P2;Temp;Humidity;BMP_temperature;BMP_pressure;BME280_temperature;BME280_humidity;BME280_pressure;Samples;Min_cycle;Max_cycle;Signal;HPM_P1;HPM_P2
2023/06/07 00:00:22;;;;;;;11.93;11.32;;;;;;;;;;4990463;28;20252;-66
2023/06/07 00:02:47;;;;;;;12.25;11.65;;;;;;;;;;4987622;28;20041;-65
2023/06/07 00:05:13;;;;;;;12.88;12.23;;;;;;;;;;4989696;28;20054;-66
2023/06/07 00:07:38;;;;;;;12.10;11.50;;;;;;;;;;4983561;28;20068;-66
2023/06/07 00:10:04;;;;;;;11.40;10.90;;;;;;;;;;4994112;28;20105;-66
2023/06/07 00:12:29;;;;;;;11.70;11.20;;;;;;;;;;4991295;28;20499;-65
2023/06/07 00:14:55;;;;;;;11.90;11.30;;;;;;;;;;4975228;28;20038;-67
2023/06/07 00:17:20;;;;;;;12.00;11.40;;;;;;;;;;4978997;28;20482;-66
2023/06/07 00:19:46;;;;;;;12.18;11.57;;;;;;;;;;4990957;28;20105;-66
2023/06/07 00:22:12;;;;;;;12.73;12.07;;;;;;;;;;4988335;28;20018;-65
2023/06/07 00:24:38;;;;;;;12.38;11.77;;;;;;;;;;4987015;28;20049;-66
2023/06/07 00:27:03;;;;;;;12.00;11.40;;;;;;;;;;4991430;28;20027;-66
2023/06/07 00:29:29;;;;;;;12.45;11.85;;;;;;;;;;4988297;28;20031;-66
2023/06/07 00:31:54;;;;;;;11.98;11.38;;;;;;;;;;4979733;28;20026;-66
2023/06/07 00:34:20;;;;;;;12.10;11.50;;;;;;;;;;4979107;28;20019;-65
2023/06/07 00:36:47;;;;;;;12.45;11.85;;;;;;;;;;4991313;28;20077;-65
2023/06/07 00:39:12;;;;;;;12.48;11.88;;;;;;;;;;4988195;28;20081;-66
2023/06/07 00:41:37;;;;;;;12.68;12.02;;;;;;;;;;4992913;28;20022;-66
2023/06/07 00:44:03;;;;;;;12.75;12.15;;;;;;;;;;4991189;28;20374;-66
2023/06/07 00:46:30;;;;;;;12.30;11.70;;;;;;;;;;4984285;28;20113;-66
2023/06/07 00:48:56;;;;;;;12.20;11.60;;;;;;;;;;4982693;28;20037;-65
2023/06/07 00:51:22;;;;;;;11.95;11.35;;;;;;;;;;4992174;28;20089;-66
2023/06/07 00:53:48;;;;;;;12.73;12.02;;;;;;;;;;4986541;28;20022;-65
2023/06/07 00:56:15;;;;;;;12.40;11.80;;;;;;;;;;4996853;28;20031;-66
2023/06/07 00:58:41;;;;;;;12.35;11.75;;;;;;;;;;4995883;28;20046;-66
2023/06/07 01:01:08;;;;;;;12.18;11.57;;;;;;;;;;4994521;28;20030;-66
2023/06/07 01:03:34;;;;;;;12.00;11.40;;;;;;;;;;4993407;28;20022;-67
2023/06/07 01:06:02;;;;;;;13.40;12.70;;;;;;;;;;4982407;28;20041;-65
2023/06/07 01:08:28;;;;;;;13.00;12.30;;;;;;;;;;4990153;28;20010;-66
2023/06/07 01:10:53;;;;;;;12.25;11.65;;;;;;;;;;4991126;28;20106;-66
2023/06/07 01:13:19;;;;;;;12.60;12.00;;;;;;;;;;4995883;28;20046;-66
2023/06/07 01:15:44;;;;;;;12.48;11.88;;;;;;;;;;4989882;28;20022;-66
2023/06/07 01:18:10;;;;;;;12.52;11.93;;;;;;;;;;4989937;28;20069;-65
2023/06/07 01:20:36;;;;;;;13.00;12.30;;;;;;;;;;4985541;28;20561;-65
2023/06/07 01:23:03;;;;;;;12.40;11.80;;;;;;;;;;4982300;28;20049;-66
2023/06/07 01:25:28;;;;;;;12.10;11.50;;;;;;;;;;4992129;28;20061;-66
2023/06/07 01:27:56;;;;;;;12.02;11.45;;;;;;;;;;4992181;28;20050;-66
2023/06/07 01:30:23;;;;;;;12.82;12.13;;;;;;;;;;4982686;28;20116;-66
2023/06/07 01:32:48;;;;;;;12.30;11.70;;;;;;;;;;5003934;28;20030;-66
2023/06/07 01:35:14;;;;;;;12.25;11.65;;;;;;;;;;4987156;28;20027;-65
2023/06/07 01:37:41;;;;;;;12.10;11.50;;;;;;;;;;4990331;28;20481;-66
2023/06/07 01:40:08;;;;;;;12.32;11.73;;;;;;;;;;4989025;28;20041;-66
2023/06/07 01:42:34;;;;;;;12.60;12.00;;;;;;;;;;4983607;28;20034;-66
2023/06/07 01:45:00;;;;;;;12.45;11.85;;;;;;;;;;4993306;28;20143;-65
2023/06/07 01:47:25;;;;;;;12.13;11.52;;;;;;;;;;4990882;28;20489;-65
2023/06/07 01:49:51;;;;;;;12.27;11.68;;;;;;;;;;4993401;28;20019;-65
2023/06/07 01:52:16;;;;;;;12.35;11.75;;;;;;;;;;4986602;28;20033;-65
2023/06/07 01:54:42;;;;;;;11.88;11.32;;;;;;;;;;4985521;28;20026;-65
2023/06/07 01:57:11;;;;;;;13.02;12.32;;;;;;;;;;4997227;28;20018;-66
2023/06/07 01:59:42;;;;;;;12.65;11.98;;;;;;;;;;4985385;28;20029;-66
2023/06/07 02:02:11;;;;;;;12.20;11.60;;;;;;;;;;4991642;28;20011;-66
2023/06/07 02:04:38;;;;;;;12.45;11.85;;;;;;;;;;4993673;28;20034;-65
2023/06/07 02:07:05;;;;;;;12.27;11.68;;;;;;;;;;4984890;28;20081;-65
2023/06/07 02:09:32;;;;;;;12.15;11.55;;;;;;;;;;4984869;28;20034;-65
2023/06/07 02:11:59;;;;;;;12.30;11.70;;;;;;;;;;4991209;28;20027;-66
2023/06/07 02:14:26;;;;;;;12.50;11.90;;;;;;;;;;4985534;28;20026;-66
2023/06/07 02:16:51;;;;;;;12.20;11.60;;;;;;;;;;4993441;28;20034;-66
2023/06/07 02:19:16;;;;;;;14.40;13.55;;;;;;;;;;4986537;28;20429;-65
2023/06/07 02:21:42;;;;;;;12.32;11.73;;;;;;;;;;4990366;28;20654;-65
2023/06/07 02:24:07;;;;;;;12.75;12.10;;;;;;;;;;4993226;28;20065;-66
2023/06/07 02:26:33;;;;;;;12.35;11.75;;;;;;;;;;4984930;28;20496;-66
2023/06/07 02:28:58;;;;;;;11.60;11.10;;;;;;;;;;4985915;28;20022;-66
2023/06/07 02:31:24;;;;;;;12.40;11.80;;;;;;;;;;4991160;28;20029;-66
2023/06/07 02:33:50;;;;;;;12.32;11.73;;;;;;;;;;4991463;28;20712;-66
2023/06/07 02:36:15;;;;;;;12.43;11.82;;;;;;;;;;4986614;28;20044;-66
2023/06/07 02:38:41;;;;;;;12.10;11.50;;;;;;;;;;4989707;28;20110;-66
2023/06/07 02:41:06;;;;;;;11.65;11.07;;;;;;;;;;4986285;28;20109;-66
2023/06/07 02:43:31;;;;;;;12.60;11.93;;;;;;;;;;4984283;28;20027;-66
2023/06/07 02:45:56;;;;;;;12.45;11.85;;;;;;;;;;4988754;28;20022;-66
2023/06/07 02:48:22;;;;;;;13.43;12.68;;;;;;;;;;4989070;28;20054;-66
2023/06/07 02:50:47;;;;;;;12.07;11.48;;;;;;;;;;4987825;28;20545;-66
2023/06/07 02:53:13;;;;;;;12.00;11.40;;;;;;;;;;4985687;28;20062;-65
2023/06/07 02:55:38;;;;;;;11.80;11.20;;;;;;;;;;4983647;28;20060;-66
2023/06/07 02:58:05;;;;;;;12.68;12.00;;;;;;;;;;4996004;28;20022;-65
2023/06/07 03:00:31;;;;;;;13.20;12.50;;;;;;;;;;4992167;28;20505;-66
2023/06/07 03:02:56;;;;;;;12.13;11.52;;;;;;;;;;4992096;28;20069;-66
2023/06/07 03:05:21;;;;;;;11.57;11.02;;;;;;;;;;4989333;28;20528;-65
2023/06/07 03:07:46;;;;;;;11.45;10.95;;;;;;;;;;4984410;28;20022;-66
2023/06/07 03:10:12;;;;;;;11.77;11.18;;;;;;;;;;4989582;28;20025;-66
2023/06/07 03:12:37;;;;;;;12.80;12.10;;;;;;;;;;4991939;28;20469;-66
2023/06/07 03:15:03;;;;;;;11.80;11.20;;;;;;;;;;4980989;28;20615;-66
2023/06/07 03:17:29;;;;;;;12.27;11.68;;;;;;;;;;4986637;28;20038;-66
2023/06/07 03:19:55;;;;;;;11.77;11.20;;;;;;;;;;4987471;28;20041;-66
2023/06/07 03:22:21;;;;;;;11.18;10.68;;;;;;;;;;4987599;28;20085;-65
2023/06/07 03:24:47;;;;;;;12.60;12.00;;;;;;;;;;4984207;28;20068;-65
2023/06/07 03:27:12;;;;;;;12.68;12.07;;;;;;;;;;4982202;28;20100;-66
2023/06/07 03:29:37;;;;;;;11.43;10.93;;;;;;;;;;4985113;28;20600;-66
2023/06/07 03:32:03;;;;;;;11.88;11.27;;;;;;;;;;4989717;28;20018;-66
2023/06/07 03:34:29;;;;;;;12.00;11.40;;;;;;;;;;4986751;28;20053;-65
2023/06/07 03:36:55;;;;;;;12.60;12.00;;;;;;;;;;4982105;28;20188;-66
2023/06/07 03:39:20;;;;;;;12.73;12.13;;;;;;;;;;4983433;28;20098;-66
2023/06/07 03:41:45;;;;;;;12.15;11.55;;;;;;;;;;4986719;28;20023;-65
2023/06/07 03:44:11;;;;;;;11.60;11.10;;;;;;;;;;4991062;28;20018;-65
2023/06/07 03:46:36;;;;;;;12.32;11.73;;;;;;;;;;4986115;28;20050;-65
2023/06/07 03:49:02;;;;;;;12.63;12.02;;;;;;;;;;4985911;28;20363;-65
2023/06/07 03:51:27;;;;;;;13.25;12.55;;;;;;;;;;4981604;28;20069;-65
2023/06/07 03:53:52;;;;;;;11.30;10.80;;;;;;;;;;4984752;28;20078;-66
2023/06/07 03:56:17;;;;;;;11.93;11.32;;;;;;;;;;4981553;28;20837;-65
2023/06/07 03:58:45;;;;;;;12.45;11.85;;;;;;;;;;4987749;28;20049;-66
2023/06/07 04:01:10;;;;;;;13.30;12.60;;;;;;;;;;4988990;28;20050;-66
2023/06/07 04:03:35;;;;;;;12.70;12.10;;;;;;;;;;4992185;28;20116;-67
2023/06/07 04:06:01;;;;;;;12.13;11.52;;;;;;;;;;4985608;28;20037;-66
2023/06/07 04:08:26;;;;;;;11.88;11.32;;;;;;;;;;4985025;28;20018;-66
2023/06/07 04:10:52;;;;;;;12.27;11.68;;;;;;;;;;4988595;28;20129;-65
2023/06/07 04:13:18;;;;;;;13.30;12.60;;;;;;;;;;4993507;28;20011;-66
2023/06/07 04:15:43;;;;;;;12.65;12.05;;;;;;;;;;4988986;28;20156;-66
2023/06/07 04:18:08;;;;;;;12.60;12.00;;;;;;;;;;4988303;28;20108;-67
2023/06/07 04:20:34;;;;;;;11.98;11.45;;;;;;;;;;4994225;28;20263;-67
2023/06/07 04:23:00;;;;;;;11.88;11.38;;;;;;;;;;4994525;28;20054;-66
2023/06/07 04:25:34;;;;;;;12.00;11.50;;;;;;;;;;4991569;28;20047;-66
2023/06/07 04:28:02;;;;;;;13.00;12.40;;;;;;;;;;4994225;28;20015;-67
2023/06/07 04:30:36;;;;;;;11.90;11.30;;;;;;;;;;4993654;28;20018;-65
2023/06/07 04:33:08;;;;;;;11.98;11.45;;;;;;;;;;4991156;28;20033;-66
2023/06/07 04:35:34;;;;;;;11.80;11.30;;;;;;;;;;4994816;28;20642;-66
2023/06/07 04:38:03;;;;;;;12.20;11.60;;;;;;;;;;4984808;28;20030;-66
2023/06/07 04:40:29;;;;;;;12.43;11.82;;;;;;;;;;4992393;28;20023;-67
2023/06/07 04:43:04;;;;;;;12.63;12.02;;;;;;;;;;4988250;28;20034;-66
2023/06/07 04:45:31;;;;;;;11.68;11.18;;;;;;;;;;4988642;28;20035;-67
2023/06/07 04:47:58;;;;;;;12.88;12.27;;;;;;;;;;4987954;28;20037;-66
2023/06/07 04:50:23;;;;;;;12.60;12.00;;;;;;;;;;4994594;28;20470;-66
2023/06/07 04:52:49;;;;;;;12.45;11.85;;;;;;;;;;4988878;28;20029;-63
2023/06/07 04:55:14;;;;;;;12.70;12.10;;;;;;;;;;4999332;28;20684;-64
2023/06/07 04:57:40;;;;;;;12.50;11.90;;;;;;;;;;4983537;28;20026;-63
2023/06/07 05:00:08;;;;;;;12.05;11.50;;;;;;;;;;4984784;28;20118;-62
2023/06/07 05:02:41;;;;;;;12.70;12.10;;;;;;;;;;4991010;28;20133;-63
2023/06/07 05:05:06;;;;;;;12.13;11.57;;;;;;;;;;4988950;28;20026;-63
2023/06/07 05:07:32;;;;;;;12.32;11.73;;;;;;;;;;4990276;28;20030;-63
2023/06/07 05:09:57;;;;;;;12.23;11.63;;;;;;;;;;4985578;28;20109;-63
2023/06/07 05:12:23;;;;;;;12.38;11.77;;;;;;;;;;4986591;28;20398;-63
2023/06/07 05:14:48;;;;;;;12.50;11.90;;;;;;;;;;4994394;28;20084;-61
2023/06/07 05:17:19;;;;;;;13.18;12.57;;;;;;;;;;4987971;28;20029;-63
2023/06/07 05:19:44;;;;;;;12.00;11.50;;;;;;;;;;4977227;28;20054;-62
2023/06/07 05:22:09;;;;;;;12.02;11.52;;;;;;;;;;4988021;28;20497;-63
2023/06/07 05:24:35;;;;;;;11.80;11.30;;;;;;;;;;4991492;28;20395;-62
2023/06/07 05:27:01;;;;;;;12.55;11.95;;;;;;;;;;4991653;28;20445;-62
2023/06/07 05:29:26;;;;;;;13.10;12.50;;;;;;;;;;4987206;28;20018;-59
2023/06/07 05:31:51;;;;;;;11.70;11.20;;;;;;;;;;4979003;28;20495;-60
2023/06/07 05:34:17;;;;;;;11.85;11.35;;;;;;;;;;4980955;28;20734;-60
2023/06/07 05:36:42;;;;;;;12.57;11.98;;;;;;;;;;4983091;28;20521;-60
2023/06/07 05:39:07;;;;;;;12.50;11.90;;;;;;;;;;4987968;28;20593;-61
2023/06/07 05:41:33;;;;;;;12.70;12.10;;;;;;;;;;4981704;28;20268;-61
2023/06/07 05:43:58;;;;;;;12.53;11.93;;;;;;;;;;4984260;28;20371;-63
2023/06/07 05:46:23;;;;;;;12.27;11.70;;;;;;;;;;4978736;28;20277;-61
2023/06/07 05:48:49;;;;;;;12.93;12.32;;;;;;;;;;4976617;28;20014;-61
2023/06/07 05:51:14;;;;;;;12.70;12.10;;;;;;;;;;4984360;28;20044;-61
2023/06/07 05:53:39;;;;;;;12.88;12.27;;;;;;;;;;4978059;28;20151;-60
2023/06/07 05:56:05;;;;;;;12.40;11.80;;;;;;;;;;4980417;28;20030;-60
2023/06/07 05:58:31;;;;;;;12.75;12.15;;;;;;;;;;4981960;28;20257;-61
2023/06/07 06:00:58;;;;;;;12.20;11.60;;;;;;;;;;4977893;28;20141;-61
2023/06/07 06:03:23;;;;;;;12.88;12.27;;;;;;;;;;4974751;28;20019;-60
2023/06/07 06:05:48;;;;;;;12.30;11.70;;;;;;;;;;4977081;28;20057;-60
2023/06/07 06:08:15;;;;;;;12.77;12.18;;;;;;;;;;4980815;28;20253;-60
2023/06/07 06:10:41;;;;;;;12.02;11.50;;;;;;;;;;4980950;28;20019;-60
2023/06/07 06:13:06;;;;;;;12.88;12.27;;;;;;;;;;4975428;28;20037;-60
2023/06/07 06:15:32;;;;;;;13.07;12.47;;;;;;;;;;4975090;28;20043;-60
2023/06/07 06:17:57;;;;;;;12.90;12.30;;;;;;;;;;4981604;28;20267;-61
2023/06/07 06:20:23;;;;;;;13.20;12.57;;;;;;;;;;4982190;28;20462;-61
2023/06/07 06:22:48;;;;;;;12.40;11.80;;;;;;;;;;4978587;28;20557;-63
2023/06/07 06:25:13;;;;;;;12.43;11.82;;;;;;;;;;4976072;28;20029;-62
2023/06/07 06:27:39;;;;;;;12.43;11.82;;;;;;;;;;4977859;28;20018;-61
2023/06/07 06:30:05;;;;;;;12.40;11.80;;;;;;;;;;4977211;28;20091;-62
2023/06/07 06:32:30;;;;;;;13.18;12.57;;;;;;;;;;4978855;28;20129;-61
2023/06/07 06:34:56;;;;;;;13.50;12.80;;;;;;;;;;4978478;28;20034;-62
2023/06/07 06:37:21;;;;;;;12.10;11.52;;;;;;;;;;4980194;28;20544;-62
2023/06/07 06:39:47;;;;;;;12.65;12.05;;;;;;;;;;4967658;28;20026;-64
2023/06/07 06:42:12;;;;;;;12.90;12.30;;;;;;;;;;4978720;28;20026;-66
2023/06/07 06:44:37;;;;;;;13.98;13.27;;;;;;;;;;4976570;28;20073;-66
2023/06/07 06:47:03;;;;;;;13.40;12.70;;;;;;;;;;4982638;28;20030;-65
2023/06/07 06:49:28;;;;;;;12.93;12.30;;;;;;;;;;4979163;28;20030;-65
2023/06/07 06:51:53;;;;;;;13.60;12.90;;;;;;;;;;4981929;28;20030;-65
2023/06/07 06:54:20;;;;;;;14.13;13.43;;;;;;;;;;4981600;28;20268;-64
2023/06/07 06:56:46;;;;;;;12.98;12.38;;;;;;;;;;4980908;28;20026;-64
2023/06/07 06:59:11;;;;;;;13.27;12.60;;;;;;;;;;4981985;28;20033;-65
2023/06/07 07:01:45;;;;;;;13.37;12.67;;;;;;;;;;4969991;28;20034;-66
2023/06/07 07:04:10;;;;;;;;;;;;;;;;;;4976729;28;20268;-65
2023/06/07 07:06:36;;;;;;;12.95;12.35;;;;;;;;;;4980680;28;19964;-66
2023/06/07 07:09:03;;;;;;;13.55;12.85;;;;;;;;;;4977798;28;20045;-66
2023/06/07 07:11:28;;;;;;;13.45;12.75;;;;;;;;;;4976897;28;20046;-65
2023/06/07 07:13:53;;;;;;;12.77;12.18;;;;;;;;;;4980898;28;20026;-64
2023/06/07 07:16:19;;;;;;;13.65;12.95;;;;;;;;;;4983382;28;20373;-64
2023/06/07 07:18:44;;;;;;;13.73;13.02;;;;;;;;;;4990958;28;20113;-63
2023/06/07 07:21:09;;;;;;;13.20;12.60;;;;;;;;;;4984124;28;20057;-64
2023/06/07 07:23:35;;;;;;;14.13;13.43;;;;;;;;;;4980285;28;20077;-65
2023/06/07 07:26:00;;;;;;;12.63;12.02;;;;;;;;;;4974330;28;20022;-65
2023/06/07 07:28:25;;;;;;;14.27;13.57;;;;;;;;;;4979739;28;20077;-63
2023/06/07 07:30:50;;;;;;;12.50;11.90;;;;;;;;;;4981525;28;20054;-64
2023/06/07 07:33:16;;;;;;;13.00;12.40;;;;;;;;;;4975093;28;20405;-65
2023/06/07 07:35:41;;;;;;;14.37;13.67;;;;;;;;;;4973493;28;20124;-63
2023/06/07 07:38:06;;;;;;;13.60;12.90;;;;;;;;;;4978087;28;20275;-64
2023/06/07 07:40:32;;;;;;;14.02;13.32;;;;;;;;;;4974979;28;20038;-65
2023/06/07 07:42:57;;;;;;;12.60;12.00;;;;;;;;;;4978866;28;20030;-65
2023/06/07 07:45:23;;;;;;;13.68;12.98;;;;;;;;;;4977641;28;20347;-64
2023/06/07 07:47:48;;;;;;;12.50;11.90;;;;;;;;;;4981955;28;20054;-64
2023/06/07 07:50:15;;;;;;;12.90;12.30;;;;;;;;;;4983143;28;20263;-64
2023/06/07 07:52:41;;;;;;;12.70;12.10;;;;;;;;;;4983404;28;20040;-65
2023/06/07 07:55:07;;;;;;;12.85;12.25;;;;;;;;;;4981890;28;20184;-65
2023/06/07 07:57:32;;;;;;;13.07;12.48;;;;;;;;;;4983776;28;20548;-65
2023/06/07 07:59:57;;;;;;;14.00;13.30;;;;;;;;;;4978729;28;20105;-65
2023/06/07 08:02:23;;;;;;;13.85;13.15;;;;;;;;;;4979965;28;20080;-65
2023/06/07 08:04:48;;;;;;;12.88;12.27;;;;;;;;;;4975236;28;20177;-64
2023/06/07 08:07:15;;;;;;;14.00;13.30;;;;;;;;;;4980056;28;20033;-65
2023/06/07 08:09:40;;;;;;;12.98;12.38;;;;;;;;;;4978882;28;20057;-64
2023/06/07 08:12:06;;;;;;;13.70;13.00;;;;;;;;;;4975626;28;20101;-65
2023/06/07 08:14:31;;;;;;;13.25;12.65;;;;;;;;;;4977395;28;20093;-65
2023/06/07 08:16:57;;;;;;;13.18;12.57;;;;;;;;;;4979282;28;20034;-64
2023/06/07 08:19:22;;;;;;;12.90;12.30;;;;;;;;;;4980274;28;20022;-62
2023/06/07 08:21:47;;;;;;;13.93;13.23;;;;;;;;;;4979009;28;20403;-64
2023/06/07 08:24:13;;;;;;;13.35;12.68;;;;;;;;;;4979135;28;20058;-64
2023/06/07 08:26:38;;;;;;;13.85;13.15;;;;;;;;;;4973812;28;20434;-65
2023/06/07 08:29:04;;;;;;;13.18;12.57;;;;;;;;;;4986451;28;20034;-64
2023/06/07 08:31:30;;;;;;;12.75;12.15;;;;;;;;;;4974912;28;20031;-64
2023/06/07 08:33:55;;;;;;;12.85;12.25;;;;;;;;;;4986699;28;20053;-63
2023/06/07 08:36:21;;;;;;;13.82;13.13;;;;;;;;;;4975986;28;20430;-64
2023/06/07 08:38:47;;;;;;;12.98;12.38;;;;;;;;;;4979946;28;20046;-66
2023/06/07 08:41:12;;;;;;;12.82;12.23;;;;;;;;;;4980456;28;20026;-65
2023/06/07 08:43:38;;;;;;;12.73;12.13;;;;;;;;;;4982307;28;20051;-64
2023/06/07 08:46:04;;;;;;;12.93;12.32;;;;;;;;;;4981134;28;20127;-64
2023/06/07 08:48:31;;;;;;;13.00;12.40;;;;;;;;;;4977867;28;20454;-64
2023/06/07 08:50:58;;;;;;;12.98;12.38;;;;;;;;;;4975898;28;20374;-65
2023/06/07 08:53:28;;;;;;;13.02;12.43;;;;;;;;;;4982227;28;20026;-65
2023/06/07 08:55:54;;;;;;;12.88;12.27;;;;;;;;;;4979305;28;20062;-67
2023/06/07 08:58:20;;;;;;;12.93;12.32;;;;;;;;;;4983600;28;20034;-66
2023/06/07 09:00:46;;;;;;;13.80;13.10;;;;;;;;;;4977668;28;20513;-66
2023/06/07 09:03:12;;;;;;;12.93;12.32;;;;;;;;;;4975307;28;20069;-65
2023/06/07 09:05:37;;;;;;;12.82;12.23;;;;;;;;;;4986757;28;20105;-66
2023/06/07 09:08:04;;;;;;;12.45;11.85;;;;;;;;;;4988278;28;20026;-65
2023/06/07 09:10:29;;;;;;;13.43;12.73;;;;;;;;;;4976599;28;20465;-63
2023/06/07 09:12:55;;;;;;;12.73;12.13;;;;;;;;;;4989632;28;20098;-64
2023/06/07 09:15:21;;;;;;;13.00;12.40;;;;;;;;;;4984516;28;20135;-62
2023/06/07 09:17:54;;;;;;;12.63;12.02;;;;;;;;;;4982341;28;20109;-62
2023/06/07 09:20:20;;;;;;;12.70;12.10;;;;;;;;;;4983978;28;20026;-61
2023/06/07 09:22:54;;;;;;;13.07;12.48;;;;;;;;;;4983895;28;20026;-62
2023/06/07 09:25:20;;;;;;;12.93;12.32;;;;;;;;;;4984132;28;20033;-61
2023/06/07 09:27:49;;;;;;;12.25;11.65;;;;;;;;;;4978331;28;20027;-61
2023/06/07 09:30:14;;;;;;;13.45;12.85;;;;;;;;;;4982157;28;20081;-62
2023/06/07 09:32:40;;;;;;;12.88;12.27;;;;;;;;;;4983062;28;20034;-62
2023/06/07 09:35:15;;;;;;;13.23;12.63;;;;;;;;;;4988966;28;20034;-62
2023/06/07 09:37:44;;;;;;;13.55;12.88;;;;;;;;;;4977374;28;20261;-61
2023/06/07 09:40:10;;;;;;;12.52;11.93;;;;;;;;;;4983297;28;20034;-62
2023/06/07 09:42:35;;;;;;;12.45;11.85;;;;;;;;;;4982524;28;20030;-62
2023/06/07 09:45:14;;;;;;;12.82;12.23;;;;;;;;;;4985045;28;20054;-60
2023/06/07 09:47:43;;;;;;;13.13;12.52;;;;;;;;;;4982093;28;20069;-62
2023/06/07 09:50:12;;;;;;;13.63;12.93;;;;;;;;;;4982362;28;20082;-62
2023/06/07 09:52:38;;;;;;;12.85;12.25;;;;;;;;;;4982835;28;20097;-61
2023/06/07 09:55:06;;;;;;;12.80;12.20;;;;;;;;;;4984647;28;20090;-62
2023/06/07 09:57:32;;;;;;;13.10;12.50;;;;;;;;;;4977136;28;20552;-63
2023/06/07 10:00:08;;;;;;;13.75;13.05;;;;;;;;;;4983469;28;20764;-61
2023/06/07 10:02:35;;;;;;;13.65;12.95;;;;;;;;;;4982020;28;20027;-61
2023/06/07 10:05:01;;;;;;;12.35;11.75;;;;;;;;;;4987443;28;20375;-61
2023/06/07 10:07:27;;;;;;;13.55;12.85;;;;;;;;;;4980921;28;20034;-61
2023/06/07 10:09:53;;;;;;;13.55;12.85;;;;;;;;;;4975756;28;20038;-60
2023/06/07 10:12:22;;;;;;;13.45;12.77;;;;;;;;;;4985085;28;20057;-59
2023/06/07 10:14:47;;;;;;;12.80;12.20;;;;;;;;;;4981212;28;20058;-61
2023/06/07 10:17:14;;;;;;;12.63;12.02;;;;;;;;;;4983820;28;20446;-61
2023/06/07 10:19:46;;;;;;;13.00;12.40;;;;;;;;;;4986106;28;20073;-60
2023/06/07 10:22:16;;;;;;;13.23;12.63;;;;;;;;;;4987311;28;20022;-61
2023/06/07 10:24:45;;;;;;;13.88;13.18;;;;;;;;;;4981435;28;20636;-60
2023/06/07 10:27:13;;;;;;;12.80;12.20;;;;;;;;;;4979063;28;20172;-61
2023/06/07 10:29:45;;;;;;;13.38;12.70;;;;;;;;;;4983919;28;20018;-60
2023/06/07 10:32:13;;;;;;;13.10;12.50;;;;;;;;;;4979147;28;20029;-63
2023/06/07 10:34:39;;;;;;;14.02;13.32;;;;;;;;;;4976866;28;20072;-61
2023/06/07 10:37:07;;;;;;;12.73;12.13;;;;;;;;;;4983469;28;20038;-61
2023/06/07 10:39:32;;;;;;;13.23;12.60;;;;;;;;;;4977407;28;20022;-60
2023/06/07 10:41:58;;;;;;;13.32;12.70;;;;;;;;;;4972585;28;20030;-62
2023/06/07 10:44:24;;;;;;;14.07;13.38;;;;;;;;;;4973542;28;20049;-63
2023/06/07 10:46:52;;;;;;;13.35;12.68;;;;;;;;;;4973634;28;20052;-61
2023/06/07 10:49:34;;;;;;;12.82;12.23;;;;;;;;;;4976363;28;20065;-62
2023/06/07 10:52:03;;;;;;;13.60;12.90;;;;;;;;;;4975391;28;20034;-61
2023/06/07 10:54:30;;;;;;;12.38;11.77;;;;;;;;;;4976633;28;20026;-62
2023/06/07 10:56:55;;;;;;;13.35;12.68;;;;;;;;;;4980899;28;20505;-65
2023/06/07 10:59:22;;;;;;;13.18;12.57;;;;;;;;;;4977015;28;20034;-63
2023/06/07 11:01:48;;;;;;;13.35;12.65;;;;;;;;;;4971680;28;20034;-64
2023/06/07 11:04:43;;;;;;;12.95;12.35;;;;;;;;;;4981865;28;20034;-63
2023/06/07 11:07:17;;;;;;;13.57;12.88;;;;;;;;;;4966367;28;20607;-63
2023/06/07 11:09:42;;;;;;;12.60;12.00;;;;;;;;;;4975595;28;20034;-63
2023/06/07 11:12:07;;;;;;;13.17;12.57;;;;;;;;;;4984306;28;20033;-61
2023/06/07 11:14:33;;;;;;;12.88;12.27;;;;;;;;;;4978942;28;20264;-61
2023/06/07 11:16:58;;;;;;;13.38;12.70;;;;;;;;;;4994458;28;20025;-62
2023/06/07 11:19:23;;;;;;;13.35;12.70;;;;;;;;;;4975196;28;20098;-63
2023/06/07 11:22:00;;;;;;;13.10;12.50;;;;;;;;;;4982914;28;20474;-63
2023/06/07 11:24:25;;;;;;;13.73;13.02;;;;;;;;;;4975864;28;20074;-62
2023/06/07 11:26:50;;;;;;;14.20;13.50;;;;;;;;;;4978324;28;20520;-61
2023/06/07 11:29:16;;;;;;;12.43;11.82;;;;;;;;;;4980898;28;20042;-62
2023/06/07 11:31:45;;;;;;;14.13;13.43;;;;;;;;;;4980187;28;20518;-62
2023/06/07 11:34:12;;;;;;;13.65;12.95;;;;;;;;;;4985219;28;20030;-62
2023/06/07 11:36:37;;;;;;;13.00;12.40;;;;;;;;;;4980302;28;20023;-62
2023/06/07 11:39:07;;;;;;;12.93;12.32;;;;;;;;;;4974227;28;20224;-61
2023/06/07 11:41:32;;;;;;;12.40;11.80;;;;;;;;;;4983889;28;20062;-61
2023/06/07 11:44:03;;;;;;;13.85;13.15;;;;;;;;;;4975030;28;20507;-63
2023/06/07 11:46:35;;;;;;;12.93;12.32;;;;;;;;;;4977292;28;20510;-62
2023/06/07 11:49:05;;;;;;;13.95;13.25;;;;;;;;;;4975704;28;20068;-62
2023/06/07 11:51:31;;;;;;;13.82;13.13;;;;;;;;;;4981623;28;20027;-62
2023/06/07 11:53:58;;;;;;;13.15;12.55;;;;;;;;;;4975317;28;20865;-62
2023/06/07 11:56:23;;;;;;;12.60;12.00;;;;;;;;;;4979104;28;20034;-62
2023/06/07 11:58:49;;;;;;;13.15;12.55;;;;;;;;;;4979076;28;20100;-63
2023/06/07 12:01:15;;;;;;;13.52;12.82;;;;;;;;;;4978841;28;20386;-64
2023/06/07 12:03:40;;;;;;;13.38;12.73;;;;;;;;;;4978404;28;20445;-63
2023/06/07 12:06:06;;;;;;;13.35;12.73;;;;;;;;;;4983289;28;20030;-63
2023/06/07 12:08:32;;;;;;;12.82;12.23;;;;;;;;;;4981028;28;20778;-63
2023/06/07 12:10:57;;;;;;;13.27;12.65;;;;;;;;;;4982353;28;20022;-63
2023/06/07 12:13:23;;;;;;;13.20;12.60;;;;;;;;;;4976943;28;20098;-62
2023/06/07 12:15:49;;;;;;;12.77;12.18;;;;;;;;;;4976723;28;20141;-62
2023/06/07 12:18:16;;;;;;;13.88;13.18;;;;;;;;;;4974268;28;20034;-63
2023/06/07 12:20:45;;;;;;;13.50;12.80;;;;;;;;;;4979585;28;20525;-64
2023/06/07 12:23:11;;;;;;;12.98;12.38;;;;;;;;;;4975596;28;20046;-63
2023/06/07 12:25:37;;;;;;;13.68;12.98;;;;;;;;;;4979137;28;20316;-64
2023/06/07 12:28:05;;;;;;;13.45;12.77;;;;;;;;;;4982537;28;20030;-63
2023/06/07 12:30:34;;;;;;;13.57;12.88;;;;;;;;;;4974168;28;20027;-62
2023/06/07 12:33:00;;;;;;;13.68;12.98;;;;;;;;;;4985053;28;20066;-63
2023/06/07 12:35:34;;;;;;;13.02;12.43;;;;;;;;;;4981178;28;20037;-64
2023/06/07 12:37:59;;;;;;;13.40;12.77;;;;;;;;;;4977867;28;20050;-64
2023/06/07 12:40:25;;;;;;;12.75;12.15;;;;;;;;;;4986580;28;20819;-63
2023/06/07 12:42:50;;;;;;;13.02;12.43;;;;;;;;;;4990153;28;20500;-64
2023/06/07 12:45:16;;;;;;;13.73;13.02;;;;;;;;;;4983084;28;20433;-64
2023/06/07 12:47:41;;;;;;;13.23;12.63;;;;;;;;;;4982231;28;20373;-63
2023/06/07 12:50:07;;;;;;;12.27;11.68;;;;;;;;;;4985936;28;20412;-62
2023/06/07 12:52:32;;;;;;;13.60;12.90;;;;;;;;;;4982459;28;20081;-63
2023/06/07 12:54:58;;;;;;;12.95;12.35;;;;;;;;;;4988591;28;20023;-64
2023/06/07 12:57:23;;;;;;;13.00;12.40;;;;;;;;;;4986413;28;20030;-64
2023/06/07 12:59:48;;;;;;;12.52;11.93;;;;;;;;;;4988056;28;20763;-63
2023/06/07 13:02:14;;;;;;;12.68;12.07;;;;;;;;;;4983380;28;20038;-64
2023/06/07 13:04:39;;;;;;;12.40;11.80;;;;;;;;;;4984941;28;20025;-61
2023/06/07 13:07:04;;;;;;;13.40;12.80;;;;;;;;;;4985917;28;20030;-65
2023/06/07 13:09:30;;;;;;;13.05;12.45;;;;;;;;;;4986834;28;20698;-63
2023/06/07 13:11:55;;;;;;;12.82;12.23;;;;;;;;;;4989991;28;20050;-64
2023/06/07 13:14:21;;;;;;;14.70;13.90;;;;;;;;;;4982081;28;20848;-64
2023/06/07 13:16:46;;;;;;;13.55;12.85;;;;;;;;;;4980672;28;20034;-63
2023/06/07 13:19:12;;;;;;;12.50;11.90;;;;;;;;;;4985146;28;20026;-63
2023/06/07 13:21:39;;;;;;;12.85;12.25;;;;;;;;;;4985931;28;20546;-63
2023/06/07 13:24:04;;;;;;;13.15;12.55;;;;;;;;;;4986159;28;20132;-64
2023/06/07 13:26:29;;;;;;;12.80;12.20;;;;;;;;;;4978468;28;20125;-65
2023/06/07 13:28:55;;;;;;;13.45;12.77;;;;;;;;;;4984353;28;20503;-63
2023/06/07 13:31:20;;;;;;;12.77;12.18;;;;;;;;;;4981637;28;20374;-64
2023/06/07 13:33:45;;;;;;;13.65;12.95;;;;;;;;;;4982801;28;20109;-63
2023/06/07 13:36:12;;;;;;;13.45;12.75;;;;;;;;;;4978410;28;20031;-65
2023/06/07 13:38:37;;;;;;;13.57;12.88;;;;;;;;;;4981711;28;20097;-65
2023/06/07 13:41:02;;;;;;;12.88;12.27;;;;;;;;;;4976785;28;20027;-64
2023/06/07 13:43:28;;;;;;;13.48;12.77;;;;;;;;;;4974807;28;20027;-66
2023/06/07 13:45:53;;;;;;;13.35;12.68;;;;;;;;;;4980518;28;20551;-63
2023/06/07 13:48:21;;;;;;;13.50;12.80;;;;;;;;;;4980569;28;20053;-64
2023/06/07 13:50:48;;;;;;;13.10;12.50;;;;;;;;;;4980615;28;20053;-64
2023/06/07 13:53:14;;;;;;;12.65;12.05;;;;;;;;;;4987444;28;20033;-63
2023/06/07 13:55:39;;;;;;;12.80;12.20;;;;;;;;;;4981061;28;20109;-64
2023/06/07 13:58:05;;;;;;;12.77;12.17;;;;;;;;;;4987085;28;20133;-64
2023/06/07 14:00:30;;;;;;;13.07;12.48;;;;;;;;;;4989130;28;20267;-61
2023/06/07 14:02:56;;;;;;;12.88;12.27;;;;;;;;;;4981933;28;20031;-63
2023/06/07 14:05:21;;;;;;;12.20;11.60;;;;;;;;;;4988596;28;20073;-63
2023/06/07 14:07:47;;;;;;;13.55;12.85;;;;;;;;;;4981925;28;20499;-63
2023/06/07 14:10:13;;;;;;;12.70;12.10;;;;;;;;;;4981229;28;20552;-64
2023/06/07 14:12:40;;;;;;;12.82;12.23;;;;;;;;;;4977975;28;20030;-62